D/T METAR WX W/DIR W/SPE G/SPE TEMP DEWP
19/03/19 19:50 EGXP 191950Z AUTO 24007KT 9999 // BKN035/// BKN044/// 10/08 Q1026 WSW (240°) 8.1mph 10°C 8°C
19/03/19 18:50 EGXP 191850Z AUTO 23007KT 9999 // OVC035/// 11/08 Q1026 SW (230°) 8.1mph 11°C 8°C
19/03/19 17:50 EGXP 191750Z AUTO 24008KT 9999 // BKN034/// 11/08 Q1025 WSW (240°) 9.2mph 11°C 8°C
19/03/19 16:50 EGXP 191650Z AUTO 24012KT 9999 // FEW060/// 12/07 Q1024 WSW (240°) 13.8mph 12°C 7°C
19/03/19 15:50 EGXP 191550Z AUTO 23010KT 9999 // BKN026/// SCT038/// 12/08 Q1024 SW (230°) 11.5mph 12°C 8°C
19/03/19 14:50 EGXP 191450Z 24011KT 9999 FEW023 BKN041 12/07 Q1024 BLU WSW (240°) 12.7mph 12°C 7°C
19/03/19 13:50 EGXP 191350Z 25009KT 9999 FEW020 BKN035 12/08 Q1025 BLU WSW (250°) 10.4mph 12°C 8°C
19/03/19 12:50 EGXP 191250Z 24011KT 9999 FEW025 BKN035 12/08 Q1025 BLU WSW (240°) 12.7mph 12°C 8°C
19/03/19 11:50 EGXP 191150Z 24009KT 9999 FEW020 BKN033 11/07 Q1025 BLU WSW (240°) 10.4mph 11°C 7°C
19/03/19 10:50 EGXP 191050Z 24007KT 9999 SCT019 SCT029 BKN041 11/07 Q1025 WHT WSW (240°) 8.1mph 11°C 7°C
19/03/19 09:50 EGXP 190950Z 24007KT 9999 BKN038 BKN047 10/08 Q1025 BLU WSW (240°) 8.1mph 10°C 8°C
19/03/19 08:50 EGXP 190850Z 23005KT CAVOK 08/08 Q1025 BLU SW (230°) 5.8mph 8°C 8°C
19/03/19 07:50 EGXP 190750Z 23004KT 7000 BR FEW032 OVC050 07/07 Q1024 WHT BR SW (230°) 4.6mph 7°C 7°C
19/03/19 06:50 EGXP 190650Z AUTO 24007KT 2100 // FEW002/// SCT030/// 04/04 Q1024 WSW (240°) 8.1mph 4°C 4°C
19/03/19 05:50 EGXP 190550Z AUTO 25007KT 0400 // NCD 04/04 Q1023 WSW (250°) 8.1mph 4°C 4°C
19/03/19 04:50 EGXP 190450Z AUTO 24006KT 1700 // BKN033/// 05/04 Q1023 WSW (240°) 6.9mph 5°C 4°C
19/03/19 03:50 EGXP 190350Z AUTO 24006KT 2200 // FEW014/// BKN036/// 06/06 Q1023 WSW (240°) 6.9mph 6°C 6°C
19/03/19 02:50 EGXP 190250Z AUTO 21004KT 2500 // FEW008/// SCT012/// BKN037/// 07/06 Q1023 SSW (210°) 4.6mph 7°C 6°C
19/03/19 01:50 EGXP 190150Z AUTO 22005KT 2900 // BKN020/// BKN038/// 07/06 Q1023 SW (220°) 5.8mph 7°C 6°C
19/03/19 00:50 EGXP 190050Z AUTO 21005KT 4300 // BKN017/// 07/06 Q1023 SSW (210°) 5.8mph 7°C 6°C
18/03/19 23:50 EGXP 182350Z AUTO 22006KT 9999 // FEW018/// SCT023/// BKN037/// 06/06 Q1022 SW (220°) 6.9mph 6°C 6°C
18/03/19 22:50 EGXP 182250Z AUTO 24006KT 9999 // FEW022/// BKN039/// 05/04 Q1022 WSW (240°) 6.9mph 5°C 4°C
18/03/19 21:50 EGXP 182150Z AUTO 23006KT 9999 // OVC021/// 07/05 Q1022 SW (230°) 6.9mph 7°C 5°C
18/03/19 20:50 EGXP 182050Z AUTO 22005KT 9999 // BKN026/// SCT035/// 07/05 Q1022 SW (220°) 5.8mph 7°C 5°C
18/03/19 19:50 EGXP 181950Z AUTO 22003KT 9999 // BKN036/// 07/05 Q1021 SW (220°) 3.5mph 7°C 5°C
18/03/19 18:50 EGXP 181850Z AUTO 24003KT 9999 // BKN038/// SCT100/// 07/04 Q1021 WSW (240°) 3.5mph 7°C 4°C
18/03/19 17:50 EGXP 181750Z AUTO 29003KT 9999 // BKN044/// 07/05 Q1020 WNW (290°) 3.5mph 7°C 5°C
18/03/19 16:50 EGXP 181650Z AUTO 28006KT 9999 // FEW042/// SCT050/// 07/04 Q1020 W (280°) 6.9mph 7°C 4°C
18/03/19 15:50 EGXP 181550Z AUTO 29010KT 9999 // FEW028/// 09/05 Q1019 WNW (290°) 11.5mph 9°C 5°C
18/03/19 14:50 EGXP 181450Z 32010KT 9999 SCT029 SCT036 BKN050 07/05 Q1019 BLU NW (320°) 11.5mph 7°C 5°C
18/03/19 13:50 EGXP 181350Z 26008KT 9999 BKN048 08/04 Q1019 BLU W (260°) 9.2mph 8°C 4°C
18/03/19 12:50 EGXP 181250Z 31007KT 9999 FEW030 BKN050 09/04 Q1019 BLU NW (310°) 8.1mph 9°C 4°C
18/03/19 11:50 EGXP 181150Z 30010KT 9999 FEW029 SCT044 09/03 Q1018 BLU WNW (300°) 11.5mph 9°C 3°C
18/03/19 10:50 EGXP 181050Z 29010KT 9999 FEW025 SCT031 BKN040 09/03 Q1018 BLU WNW (290°) 11.5mph 9°C 3°C
18/03/19 09:50 EGXP 180950Z 29009KT 9999 FEW019 SCT042 BKN180 08/04 Q1018 BLU WNW (290°) 10.4mph 8°C 4°C
18/03/19 08:50 EGXP 180850Z 25006KT CAVOK 06/04 Q1017 BLU WSW (250°) 6.9mph 6°C 4°C
18/03/19 07:50 EGXP 180750Z 27004KT 9999 FEW043 BKN170 05/03 Q1017 BLU W (270°) 4.6mph 5°C 3°C
18/03/19 06:50 EGXP 180650Z AUTO 28005KT 9999 // FEW034/// BKN050/// 02/01 Q1016 W (280°) 5.8mph 2°C 1°C
18/03/19 05:50 EGXP 180550Z AUTO 29005KT 9999 // BKN049/// 02/01 Q1016 WNW (290°) 5.8mph 2°C 1°C
18/03/19 04:50 EGXP 180450Z AUTO 28006KT 9999 // FEW050/// SCT210/// 02/01 Q1015 W (280°) 6.9mph 2°C 1°C
18/03/19 03:50 EGXP 180350Z AUTO 28005KT 9999 // SCT035/// SCT050/// 04/02 Q1015 W (280°) 5.8mph 4°C 2°C
18/03/19 02:50 EGXP 180250Z AUTO 30007KT 9999 // BKN050/// 04/02 Q1014 WNW (300°) 8.1mph 4°C 2°C
18/03/19 01:50 EGXP 180150Z AUTO 31008KT 9999 // SCT050/// 04/02 Q1014 NW (310°) 9.2mph 4°C 2°C
18/03/19 00:50 EGXP 180050Z AUTO 23004KT 9999 // BKN050/// 03/02 Q1013 SW (230°) 4.6mph 3°C 2°C
17/03/19 23:50 EGXP 172350Z AUTO 26007KT 9999 // FEW050/// 02/01 Q1012 W (260°) 8.1mph 2°C 1°C
17/03/19 22:50 EGXP 172250Z AUTO 32006KT 9999 // NCD 03/01 Q1011 NW (320°) 6.9mph 3°C 1°C
17/03/19 21:50 EGXP 172150Z AUTO 31008KT 9999 // FEW080/// 05/03 Q1010 NW (310°) 9.2mph 5°C 3°C
17/03/19 20:50 EGXP 172050Z AUTO 28005KT 9999 // NCD 03/02 Q1009 W (280°) 5.8mph 3°C 2°C
17/03/19 19:50 EGXP 171950Z AUTO 28008KT 9999 // SCT035/// SCT050/// 05/02 Q1008 W (280°) 9.2mph 5°C 2°C
17/03/19 18:50 EGXP 171850Z AUTO 29011KT 9999 // FEW049/// 05/02 Q1007 WNW (290°) 12.7mph 5°C 2°C
17/03/19 17:50 EGXP 171750Z AUTO 28016KT 9999 // FEW048/// 06/02 Q1005 W (280°) 18.4mph 6°C 2°C
17/03/19 16:50 EGXP 171650Z AUTO 28017KT 9999 // FEW041/// 07/02 Q1004 W (280°) 19.6mph 7°C 2°C
17/03/19 15:50 EGXP 171550Z AUTO 29019KT 9999 // SCT041/// 08/00 Q1003 WNW (290°) 21.9mph 8°C 0°C
17/03/19 14:50 EGXP 171450Z AUTO 29022KT 9999 // FEW038/// 08/02 Q1003 WNW (290°) 25.3mph 8°C 2°C
17/03/19 13:50 EGXP 171350Z AUTO 29013KT 9999 // FEW050/// 07/02 Q1002 WNW (290°) 15.0mph 7°C 2°C
17/03/19 12:50 EGXP 171250Z AUTO 27011KT 9999 // FEW044/// SCT110/// 06/03 Q1002 W (270°) 12.7mph 6°C 3°C
17/03/19 11:50 EGXP 171150Z AUTO 28015KT 9999 // SCT026/// 07/03 Q1001 W (280°) 17.3mph 7°C 3°C
17/03/19 10:50 EGXP 171050Z AUTO 28018KT 9999 // SCT029/// SCT035/// 08/02 Q1000 W (280°) 20.7mph 8°C 2°C
17/03/19 09:50 EGXP 170950Z AUTO 28020KT 9999 // SCT023/// 06/02 Q1000 W (280°) 23.0mph 6°C 2°C
17/03/19 08:50 EGXP 170850Z AUTO 28020KT 9999 // NCD 04/02 Q0999 W (280°) 23.0mph 4°C 2°C
17/03/19 07:50 EGXP 170750Z AUTO 27017KT 9999 // FEW150/// 04/02 Q0998 W (270°) 19.6mph 4°C 2°C
17/03/19 06:50 EGXP 170650Z AUTO 27016KT 9999 // BKN150/// 03/01 Q0997 W (270°) 18.4mph 3°C 1°C
17/03/19 05:50 EGXP 170550Z AUTO 27013KT 9999 // BKN160/// 03/01 Q0996 W (270°) 15.0mph 3°C 1°C
17/03/19 04:50 EGXP 170450Z AUTO 26012KT 9999 // FEW024/// BKN180/// 03/01 Q0995 W (260°) 13.8mph 3°C 1°C
17/03/19 03:50 EGXP 170350Z AUTO 25011KT 9999 // BKN027/// 04/02 Q0995 WSW (250°) 12.7mph 4°C 2°C
17/03/19 02:50 EGXP 170250Z AUTO 25009KT 9999 // BKN025/// SCT140/// 03/02 Q0994 WSW (250°) 10.4mph 3°C 2°C
17/03/19 01:50 EGXP 170150Z AUTO 24010KT 9999 // FEW050/// 02/01 Q0993 WSW (240°) 11.5mph 2°C 1°C
17/03/19 00:50 EGXP 170050Z AUTO 26011KT 9999 // BKN120/// 04/02 Q0993 W (260°) 12.7mph 4°C 2°C
16/03/19 23:50 EGXP 162350Z AUTO 26010KT 9999 // FEW028/// 03/02 Q0992 W (260°) 11.5mph 3°C 2°C
16/03/19 22:50 EGXP 162250Z AUTO 26011KT 9999 // FEW130/// BKN240/// 05/02 Q0992 W (260°) 12.7mph 5°C 2°C
16/03/19 21:50 EGXP 162150Z AUTO 26013KT 9999 // BKN090/// BKN180/// 05/02 Q0991 W (260°) 15.0mph 5°C 2°C
16/03/19 20:50 EGXP 162050Z AUTO 28018KT 9999 // BKN050/// 06/03 Q0990 W (280°) 20.7mph 6°C 3°C
16/03/19 19:50 EGXP 161950Z AUTO 27020KT 9999 // FEW035/// BKN042/// 07/05 Q0989 W (270°) 23.0mph 7°C 5°C
16/03/19 18:50 EGXP 161850Z AUTO 24024G34KT 9999 // FEW032/// BKN050/// 09/08 Q0988 WSW (240°) 27.6mph 39.1mph 9°C 8°C
16/03/19 17:50 EGXP 161750Z AUTO 22024KT 9999 // FEW023/// BKN070/// 10/08 Q0988 SW (220°) 27.6mph 10°C 8°C
16/03/19 16:50 EGXP 161650Z AUTO 22023KT 9999 // SCT021/// BKN027/// BKN032/// 11/08 Q0989 SW (220°) 26.5mph 11°C 8°C
16/03/19 15:50 EGXP 161550Z AUTO 22027G38KT 9999 // BKN020/// BKN027/// 11/08 Q0990 SW (220°) 31.1mph 43.7mph 11°C 8°C
16/03/19 14:50 EGXP 161450Z AUTO 23026G36KT 9999 // BKN023/// 12/07 Q0991 SW (230°) 29.9mph 41.4mph 12°C 7°C
16/03/19 13:50 EGXP 161350Z AUTO 22022KT 9999 // BKN023/// SCT030/// 12/08 Q0992 SW (220°) 25.3mph 12°C 8°C
16/03/19 12:50 EGXP 161250Z AUTO 23025G36KT 9999 // BKN023/// BKN029/// 11/08 Q0993 SW (230°) 28.8mph 41.4mph 11°C 8°C
16/03/19 11:50 EGXP 161150Z AUTO 23024G34KT 9999 // BKN023/// BKN029/// 11/08 Q0994 SW (230°) 27.6mph 39.1mph 11°C 8°C
16/03/19 10:50 EGXP 161050Z AUTO 24024KT 9999 // OVC023/// 11/08 Q0994 WSW (240°) 27.6mph 11°C 8°C
16/03/19 09:50 EGXP 160950Z AUTO 24027G41KT 9999 // OVC023/// 11/07 Q0995 WSW (240°) 31.1mph 47.2mph 11°C 7°C
16/03/19 08:50 EGXP 160850Z AUTO 23024KT 9999 // OVC019/// 11/08 Q0995 SW (230°) 27.6mph 11°C 8°C
16/03/19 07:50 EGXP 160750Z AUTO 22023KT 9999 // BKN019/// 10/08 Q0995 SW (220°) 26.5mph 10°C 8°C
16/03/19 06:50 EGXP 160650Z AUTO 22019KT 9999 // FEW020/// BKN060/// 10/08 Q0997 SW (220°) 21.9mph 10°C 8°C
16/03/19 05:50 EGXP 160550Z AUTO 23020KT 9999 // BKN020/// SCT028/// 10/09 Q0998 SW (230°) 23.0mph 10°C 9°C
16/03/19 04:50 EGXP 160450Z AUTO 16007KT 5000 // BKN002/// SCT009/// 07/07 Q0999 SSE (160°) 8.1mph 7°C 7°C
16/03/19 03:50 EGXP 160350Z AUTO 12005KT 2400 // BKN002/// BKN015/// 06/06 Q1001 ESE (120°) 5.8mph 6°C 6°C
16/03/19 02:50 EGXP 160250Z AUTO 17004KT 7000 // BKN021/// 06/05 Q1002 S (170°) 4.6mph 6°C 5°C
16/03/19 01:50 EGXP 160150Z AUTO 21006KT 9999 // FEW022/// BKN027/// 06/05 Q1004 SSW (210°) 6.9mph 6°C 5°C
16/03/19 00:50 EGXP 160050Z AUTO 21007KT 9999 // FEW032/// BKN050/// 07/05 Q1005 SSW (210°) 8.1mph 7°C 5°C
15/03/19 23:50 EGXP 152350Z AUTO 22007KT 9999 // OVC070/// 07/03 Q1006 SW (220°) 8.1mph 7°C 3°C
15/03/19 22:50 EGXP 152250Z AUTO 22009KT 9999 // BKN070/// SCT170/// 07/02 Q1007 SW (220°) 10.4mph 7°C 2°C
15/03/19 21:50 EGXP 152150Z AUTO 22006KT 9999 // BKN150/// 05/02 Q1007 SW (220°) 6.9mph 5°C 2°C
15/03/19 20:50 EGXP 152050Z AUTO 26006KT 9999 // BKN160/// 05/01 Q1007 W (260°) 6.9mph 5°C 1°C
15/03/19 19:50 EGXP 151950Z AUTO 28010KT 9999 // FEW180/// 06/01 Q1006 W (280°) 11.5mph 6°C 1°C
15/03/19 18:50 EGXP 151850Z AUTO 29013KT 9999 // NCD 07/01 Q1006 WNW (290°) 15.0mph 7°C 1°C
15/03/19 17:50 EGXP 151750Z AUTO 29017KT 9999 // FEW045/// 09/02 Q1005 WNW (290°) 19.6mph 9°C 2°C
15/03/19 16:50 EGXP 151650Z AUTO 28021KT 9999 // FEW044/// SCT050/// 10/01 Q1004 W (280°) 24.2mph 10°C 1°C
15/03/19 15:50 EGXP 151550Z AUTO 29023G33KT 9999 // NCD 10/01 Q1003 WNW (290°) 26.5mph 38.0mph 10°C 1°C
15/03/19 14:50 EGXP 151450Z AUTO 28025KT 9999 // SCT042/// 11/02 Q1003 W (280°) 28.8mph 11°C 2°C
15/03/19 13:50 EGXP 151350Z AUTO 28029KT 9999 // SCT045/// 11/02 Q1002 W (280°) 33.4mph 11°C 2°C
15/03/19 12:50 EGXP 151250Z AUTO 28028KT 9999 // BKN046/// 11/02 Q1002 W (280°) 32.2mph 11°C 2°C
15/03/19 11:50 EGXP 151150Z 29021KT 9999 SCT037 BKN043 BKN050 10/04 Q1001 BLU WNW (290°) 24.2mph 10°C 4°C
15/03/19 10:50 EGXP 151050Z AUTO 28027G39KT 9999 // BKN046/// 11/04 Q1000 W (280°) 31.1mph 44.9mph 11°C 4°C
15/03/19 09:50 EGXP 150950Z 28026G40KT 9999 FEW034 SCT040 12/05 Q1000 BLU W (280°) 29.9mph 46.0mph 12°C 5°C
15/03/19 08:50 EGXP 150850Z 28027KT 9999 SCT035 12/06 Q0999 BLU W (280°) 31.1mph 12°C 6°C
15/03/19 07:50 EGXP 150750Z 28021G31KT 9999 VCSH SCT030 BKN045 12/06 Q0999 BLU VCSH W (280°) 24.2mph 35.7mph 12°C 6°C
15/03/19 06:50 EGXP 150650Z AUTO 28017KT 9999 // BKN023/// SCT033/// 12/08 Q0998 W (280°) 19.6mph 12°C 8°C
15/03/19 05:50 EGXP 150550Z AUTO 26020KT 9999 // BKN022/// BKN034/// 12/09 Q0997 W (260°) 23.0mph 12°C 9°C
15/03/19 04:50 EGXP 150450Z AUTO 23017KT 9999 // BKN021/// SCT031/// 10/09 Q0997 SW (230°) 19.6mph 10°C 9°C
15/03/19 03:50 EGXP 150350Z AUTO 22017KT 9999 // BKN023/// BKN100/// 08/08 Q0998 SW (220°) 19.6mph 8°C 8°C
15/03/19 02:50 EGXP 150250Z AUTO 22014KT 9999 // FEW005/// BKN015/// 07/07 Q0999 SW (220°) 16.1mph 7°C 7°C
15/03/19 01:50 EGXP 150150Z AUTO 23015KT 9999 // BKN022/// 07/06 Q1000 SW (230°) 17.3mph 7°C 6°C
15/03/19 00:50 EGXP 150050Z AUTO 23009KT 9999 // BKN045/// 07/04 Q1001 SW (230°) 10.4mph 7°C 4°C
14/03/19 23:50 EGXP 142350Z AUTO 23013KT 9999 // SCT033/// BKN110/// 08/04 Q1002 SW (230°) 15.0mph 8°C 4°C
14/03/19 22:50 EGXP 142250Z AUTO 24012KT 9999 // FEW036/// SCT044/// BKN120/// 08/04 Q1003 WSW (240°) 13.8mph 8°C 4°C
14/03/19 21:50 EGXP 142150Z AUTO 25011KT 9999 // SCT050/// OVC120/// 08/04 Q1003 WSW (250°) 12.7mph 8°C 4°C
14/03/19 20:50 EGXP 142050Z AUTO 26013KT 9999 // BKN140/// 07/04 Q1004 W (260°) 15.0mph 7°C 4°C
14/03/19 19:50 EGXP 141950Z AUTO 28014KT 9999 // FEW050/// BKN150/// 08/04 Q1004 W (280°) 16.1mph 8°C 4°C
14/03/19 18:50 EGXP 141850Z AUTO 27013KT 9999 // FEW036/// SCT190/// 08/03 Q1004 W (270°) 15.0mph 8°C 3°C
14/03/19 17:50 EGXP 141750Z AUTO 28017KT 9999 // NCD 09/02 Q1003 W (280°) 19.6mph 9°C 2°C
14/03/19 16:50 EGXP 141650Z AUTO 29025KT 9999 // NCD 10/02 Q1002 WNW (290°) 28.8mph 10°C 2°C
14/03/19 15:50 EGXP 141550Z AUTO 29026G36KT 9999 // FEW036/// 10/03 Q1000 WNW (290°) 29.9mph 41.4mph 10°C 3°C
14/03/19 14:50 EGXP 141450Z AUTO 29031G43KT 9999 // NCD 11/02 Q1000 WNW (290°) 35.7mph 49.5mph 11°C 2°C
14/03/19 13:50 EGXP 141350Z AUTO 30028G42KT 9999 // BKN042/// 11/01 Q0999 WNW (300°) 32.2mph 48.3mph 11°C 1°C
14/03/19 12:50 EGXP 141250Z AUTO 29030G41KT 9999 // SCT039/// 12/03 Q0998 WNW (290°) 34.5mph 47.2mph 12°C 3°C
14/03/19 11:50 EGXP 141150Z AUTO 29029G40KT 9999 // BKN031/// SCT039/// 11/04 Q0997 WNW (290°) 33.4mph 46.0mph 11°C 4°C
14/03/19 10:50 EGXP 141050Z AUTO 29027G37KT 9999 // FEW027/// BKN036/// 11/05 Q0996 WNW (290°) 31.1mph 42.6mph 11°C 5°C
14/03/19 09:50 EGXP 140950Z 30032G42KT 9999 FEW031 11/05 Q0995 BLU WNW (300°) 36.8mph 48.3mph 11°C 5°C
14/03/19 08:50 EGXP 140850Z 28027KT 9999 VCSH SCT010 SCT060 10/07 Q0994 GRN VCSH W (280°) 31.1mph 10°C 7°C
14/03/19 07:50 EGXP 140750Z 26024KT 9999 -RA BKN010 09/07 Q0993 GRN -RA W (260°) 27.6mph 9°C 7°C
14/03/19 06:50 EGXP 140650Z AUTO 24022KT 9999 // FEW017/// BKN050/// 08/07 Q0994 WSW (240°) 25.3mph 8°C 7°C
14/03/19 05:50 EGXP 140550Z AUTO 24022KT 9999 // BKN020/// SCT110/// 07/06 Q0995 WSW (240°) 25.3mph 7°C 6°C
14/03/19 04:50 EGXP 140450Z AUTO 24022KT 9999 // BKN050/// 07/05 Q0997 WSW (240°) 25.3mph 7°C 5°C
14/03/19 03:50 EGXP 140350Z AUTO 24022KT 9999 // BKN015/// 06/05 Q0999 WSW (240°) 25.3mph 6°C 5°C
14/03/19 02:50 EGXP 140250Z AUTO 24023KT 9999 // FEW070/// BKN100/// 06/05 Q1001 WSW (240°) 26.5mph 6°C 5°C
14/03/19 01:50 EGXP 140150Z AUTO 24018KT 9999 // FEW070/// BKN130/// 06/04 Q1003 WSW (240°) 20.7mph 6°C 4°C
14/03/19 00:50 EGXP 140050Z AUTO 25019KT 9999 // FEW060/// BKN130/// 06/04 Q1005 WSW (250°) 21.9mph 6°C 4°C
13/03/19 23:50 EGXP 132350Z AUTO 26019KT 9999 // SCT022/// BKN100/// 06/04 Q1006 W (260°) 21.9mph 6°C 4°C
13/03/19 22:50 EGXP 132250Z AUTO 26015KT 9999 // BKN022/// 07/04 Q1007 W (260°) 17.3mph 7°C 4°C
13/03/19 21:50 EGXP 132150Z AUTO 26014KT 9999 // BKN027/// SCT050/// 07/04 Q1008 W (260°) 16.1mph 7°C 4°C
13/03/19 20:50 EGXP 132050Z AUTO 27015KT 9999 // FEW029/// BKN046/// BKN090/// 07/03 Q1008 W (270°) 17.3mph 7°C 3°C